createdAt,value
2023-02-11T00:02:08.255Z,6.03
2023-02-11T00:04:35.822Z,6.04
2023-02-11T00:07:02.376Z,6.04
2023-02-11T00:09:31.812Z,6.04
2023-02-11T00:11:58.366Z,6.05
2023-02-11T00:14:24.911Z,6.05
2023-02-11T00:16:51.401Z,6.04
2023-02-11T00:19:23.761Z,6.04
2023-02-11T00:21:50.237Z,6.04
2023-02-11T00:24:16.632Z,6.04
2023-02-11T00:26:44.986Z,6.04
2023-02-11T00:29:11.426Z,6.03
2023-02-11T00:31:47.310Z,6.02
2023-02-11T00:34:13.897Z,6.02
2023-02-11T00:36:40.605Z,6.01
2023-02-11T00:39:07.838Z,6.02
2023-02-11T00:41:34.519Z,6.02
2023-02-11T00:44:01.841Z,6.02
2023-02-11T00:46:36.578Z,6.02
2023-02-11T00:49:03.167Z,6.04
2023-02-11T00:51:58.629Z,6.05
2023-02-11T00:54:25.161Z,6.04
2023-02-11T00:56:51.634Z,6.04
2023-02-11T00:59:18.068Z,6.04
2023-02-11T01:01:44.682Z,6.02
2023-02-11T01:04:13.191Z,6.02
2023-02-11T01:07:42.576Z,6.01
2023-02-11T01:10:14.839Z,6.00
2023-02-11T01:12:41.395Z,5.99
2023-02-11T01:15:09.229Z,5.99
2023-02-11T01:18:08.914Z,5.96
2023-02-11T01:20:36.653Z,5.93
2023-02-11T01:23:08.264Z,5.90
2023-02-11T01:25:34.693Z,5.87
2023-02-11T01:28:01.236Z,5.83
2023-02-11T01:30:42.062Z,5.83
2023-02-11T01:33:08.627Z,5.80
2023-02-11T01:35:36.101Z,5.79
2023-02-11T01:38:02.496Z,5.80
2023-02-11T01:40:52.734Z,5.80
2023-02-11T01:43:20.246Z,5.80
2023-02-11T01:45:47.090Z,5.82
2023-02-11T01:48:37.784Z,5.81
2023-02-11T01:51:09.009Z,5.81
2023-02-11T01:54:11.845Z,5.81
2023-02-11T01:57:02.941Z,5.80
2023-02-11T01:59:34.748Z,5.81
2023-02-11T02:02:09.881Z,5.78
2023-02-11T02:04:46.485Z,5.78
2023-02-11T02:07:24.341Z,5.78
2023-02-11T02:10:01.728Z,5.76
2023-02-11T02:12:39.299Z,5.76
2023-02-11T02:15:41.232Z,5.78
2023-02-11T02:18:42.716Z,5.76
2023-02-11T02:21:46.928Z,5.75
2023-02-11T02:24:22.271Z,5.74
2023-02-11T02:27:12.972Z,5.75
2023-02-11T02:30:08.270Z,5.75
2023-02-11T02:32:55.646Z,5.70
2023-02-11T02:35:43.255Z,5.68
2023-02-11T02:38:33.542Z,5.63
2023-02-11T02:41:06.808Z,5.59
2023-02-11T02:43:34.777Z,5.58
2023-02-11T02:46:22.195Z,5.58
2023-02-11T02:48:50.156Z,5.57
2023-02-11T02:52:01.207Z,5.56
2023-02-11T02:54:47.235Z,5.55
2023-02-11T02:58:00.706Z,5.55
2023-02-11T03:00:54.987Z,5.55
2023-02-11T03:03:40.108Z,5.56
2023-02-11T03:06:28.594Z,5.58
2023-02-11T03:09:13.143Z,5.58
2023-02-11T03:11:39.972Z,5.57
2023-02-11T03:14:10.512Z,5.57
2023-02-11T03:16:40.113Z,5.55
2023-02-11T03:19:17.336Z,5.54
2023-02-11T03:21:44.493Z,5.54
2023-02-11T03:24:25.836Z,5.55
2023-02-11T03:26:54.670Z,5.54
2023-02-11T03:29:51.513Z,5.53
2023-02-11T03:32:36.431Z,5.54
2023-02-11T03:35:25.093Z,5.52
2023-02-11T03:38:02.620Z,5.52
2023-02-11T03:40:33.044Z,5.52
2023-02-11T03:43:17.148Z,5.52
2023-02-11T03:45:52.499Z,5.51
2023-02-11T03:48:33.023Z,5.50
2023-02-11T03:51:03.716Z,5.50
2023-02-11T03:53:30.142Z,5.47
2023-02-11T03:56:02.698Z,5.47
2023-02-11T03:58:29.107Z,5.44
2023-02-11T04:00:55.571Z,5.41
2023-02-11T04:03:22.040Z,5.41
2023-02-11T04:05:48.999Z,5.41
2023-02-11T04:08:15.722Z,5.40
2023-02-11T04:11:13.326Z,5.41
2023-02-11T04:13:43.731Z,5.44
2023-02-11T04:16:10.143Z,5.47
2023-02-11T04:18:40.591Z,5.50
2023-02-11T04:21:07.089Z,5.52
2023-02-11T04:23:33.489Z,5.53
2023-02-11T04:25:59.899Z,5.54
2023-02-11T04:28:29.625Z,5.53
2023-02-11T04:31:12.052Z,5.54
2023-02-11T04:33:38.460Z,5.55
2023-02-11T04:36:07.330Z,5.55
2023-02-11T04:38:33.751Z,5.57
2023-02-11T04:41:04.232Z,5.58
2023-02-11T04:43:46.852Z,5.60
2023-02-11T04:46:19.777Z,5.60
2023-02-11T04:48:46.156Z,5.61
2023-02-11T04:51:12.544Z,5.62
2023-02-11T04:54:03.898Z,5.60
2023-02-11T04:56:36.779Z,5.64
2023-02-11T04:59:11.585Z,5.63
2023-02-11T05:01:38.040Z,5.63
2023-02-11T05:04:12.751Z,5.66
2023-02-11T05:06:39.867Z,5.67
2023-02-11T05:09:08.054Z,5.66
2023-02-11T05:11:44.547Z,5.67
2023-02-11T05:14:17.979Z,5.68
2023-02-11T05:16:44.507Z,5.68
2023-02-11T05:19:26.152Z,5.68
2023-02-11T05:22:03.212Z,5.71
2023-02-11T05:24:32.090Z,5.74
2023-02-11T05:27:16.087Z,5.75
2023-02-11T05:29:42.467Z,5.77
2023-02-11T05:32:09.125Z,5.78
2023-02-11T05:34:59.571Z,5.79
2023-02-11T05:37:26.098Z,5.82
2023-02-11T05:39:52.549Z,5.81
2023-02-11T05:42:18.931Z,5.82
2023-02-11T05:44:45.317Z,5.83
2023-02-11T05:47:19.954Z,5.83
2023-02-11T05:50:00.783Z,5.82
2023-02-11T05:52:27.222Z,5.83
2023-02-11T05:54:55.627Z,5.83
2023-02-11T05:57:22.114Z,5.84
2023-02-11T05:59:48.493Z,5.84
2023-02-11T06:02:29.331Z,5.85
2023-02-11T06:04:55.731Z,5.86
2023-02-11T06:07:22.266Z,5.86
2023-02-11T06:09:48.746Z,5.87
2023-02-11T06:12:15.140Z,5.87
2023-02-11T06:14:44.725Z,5.88
2023-02-11T06:17:13.983Z,5.88
2023-02-11T06:19:42.116Z,5.89
2023-02-11T06:22:13.759Z,5.89
2023-02-11T06:24:58.957Z,5.90
2023-02-11T06:27:30.915Z,5.94
2023-02-11T06:29:57.430Z,5.94
2023-02-11T06:32:43.696Z,5.96
2023-02-11T06:35:12.492Z,5.97
2023-02-11T06:37:39.782Z,5.97
2023-02-11T06:40:06.673Z,5.96
2023-02-11T06:42:33.153Z,5.98
2023-02-11T06:44:59.665Z,5.98
2023-02-11T06:47:42.542Z,5.98
2023-02-11T06:50:12.079Z,6.00
2023-02-11T06:52:38.617Z,6.01
2023-02-11T06:55:05.599Z,6.03
2023-02-11T06:57:32.556Z,6.03
2023-02-11T07:00:14.597Z,6.02
2023-02-11T07:02:42.092Z,6.04
2023-02-11T07:05:25.795Z,6.04
2023-02-11T07:07:52.230Z,6.06
2023-02-11T07:10:18.793Z,6.05
2023-02-11T07:12:45.267Z,6.05
2023-02-11T07:15:14.862Z,6.06
2023-02-11T07:17:41.314Z,6.08
2023-02-11T07:20:09.192Z,6.10
2023-02-11T07:22:35.878Z,6.09
2023-02-11T07:25:02.303Z,6.14
2023-02-11T07:27:35.132Z,6.17
2023-02-11T07:30:07.555Z,6.19
2023-02-11T07:32:35.156Z,6.19
2023-02-11T07:35:23.667Z,6.22
2023-02-11T07:38:10.420Z,6.23
2023-02-11T07:40:36.881Z,6.25
2023-02-11T07:43:13.619Z,6.28
2023-02-11T07:45:44.253Z,6.30
2023-02-11T07:48:10.772Z,6.31
2023-02-11T07:50:37.344Z,6.32
2023-02-11T07:53:04.905Z,6.34
2023-02-11T07:55:31.380Z,6.37
2023-02-11T07:57:57.821Z,6.38
2023-02-11T08:00:27.615Z,6.39
2023-02-11T08:02:54.207Z,6.40
2023-02-11T08:05:34.005Z,6.41
2023-02-11T08:08:00.411Z,6.42
2023-02-11T08:10:39.265Z,6.44
2023-02-11T08:13:06.762Z,6.45
2023-02-11T08:15:33.209Z,6.48
2023-02-11T08:18:04.873Z,6.50
2023-02-11T08:20:31.385Z,6.51
2023-02-11T08:22:58.080Z,6.53
2023-02-11T08:25:24.529Z,6.53
2023-02-11T08:27:50.903Z,6.55
2023-02-11T08:30:17.374Z,6.55
2023-02-11T08:32:43.900Z,6.56
2023-02-11T08:35:12.540Z,6.61
2023-02-11T08:37:39.088Z,6.59
2023-02-11T08:40:06.185Z,6.62
2023-02-11T08:42:32.693Z,6.62
2023-02-11T08:44:59.123Z,6.64
2023-02-11T08:47:25.685Z,6.65
2023-02-11T08:49:52.155Z,6.67
2023-02-11T08:52:18.640Z,6.68
2023-02-11T08:54:45.100Z,6.69
2023-02-11T08:57:11.621Z,6.72
2023-02-11T08:59:40.099Z,6.75
2023-02-11T09:02:07.647Z,6.77
2023-02-11T09:04:34.092Z,6.81
2023-02-11T09:07:08.836Z,6.85
2023-02-11T09:09:35.380Z,6.88
2023-02-11T09:12:19.139Z,6.88
2023-02-11T09:15:04.971Z,6.93
2023-02-11T09:17:31.464Z,6.96
2023-02-11T09:20:03.935Z,7.00
2023-02-11T09:22:30.471Z,7.03
2023-02-11T09:24:57.079Z,7.06
2023-02-11T09:27:23.495Z,7.08
2023-02-11T09:29:49.972Z,7.11
2023-02-11T09:32:16.635Z,7.14
2023-02-11T09:34:45.307Z,7.16
2023-02-11T09:37:11.738Z,7.19
2023-02-11T09:39:38.213Z,7.21
2023-02-11T09:42:32.555Z,7.24
2023-02-11T09:45:01.296Z,7.27
2023-02-11T09:47:31.883Z,7.29
2023-02-11T09:50:11.658Z,7.34
2023-02-11T09:52:45.515Z,7.37
2023-02-11T09:55:23.080Z,7.40
2023-02-11T09:57:49.711Z,7.45
2023-02-11T10:00:20.999Z,7.50
2023-02-11T10:02:56.479Z,7.53
2023-02-11T10:05:29.847Z,7.56
2023-02-11T10:08:09.971Z,7.61
2023-02-11T10:10:53.112Z,7.64
2023-02-11T10:13:52.169Z,7.66
2023-02-11T10:16:40.272Z,7.70
2023-02-11T10:19:22.659Z,7.73
2023-02-11T10:22:06.542Z,7.81
2023-02-11T10:24:34.320Z,7.88
2023-02-11T10:27:08.595Z,7.94
2023-02-11T10:29:54.948Z,8.05
2023-02-11T10:32:35.264Z,8.15
2023-02-11T10:35:15.378Z,8.22
2023-02-11T10:37:44.248Z,8.27
2023-02-11T10:40:16.885Z,8.31
2023-02-11T10:42:47.932Z,8.33
2023-02-11T10:45:36.069Z,8.37
2023-02-11T10:48:26.758Z,8.38
2023-02-11T10:51:07.464Z,8.38
2023-02-11T10:53:34.775Z,8.36
2023-02-11T10:56:03.591Z,8.35
2023-02-11T10:58:53.978Z,8.35
2023-02-11T11:01:24.778Z,8.34
2023-02-11T11:03:52.594Z,8.37
2023-02-11T11:06:31.536Z,8.42
2023-02-11T11:08:58.010Z,8.46
2023-02-11T11:11:26.005Z,8.52
2023-02-11T11:13:52.295Z,8.60
2023-02-11T11:16:33.110Z,8.72
2023-02-11T11:19:08.752Z,8.84
2023-02-11T11:21:47.320Z,8.90
2023-02-11T11:24:26.962Z,8.92
2023-02-11T11:26:57.580Z,8.94
2023-02-11T11:29:36.428Z,8.99
2023-02-11T11:32:13.130Z,9.00
2023-02-11T11:34:45.037Z,9.05
2023-02-11T11:37:27.428Z,9.11
2023-02-11T11:40:17.494Z,9.16
2023-02-11T11:42:43.970Z,9.26
2023-02-11T11:45:16.425Z,9.29
2023-02-11T11:47:52.501Z,9.26
2023-02-11T11:50:27.741Z,9.26
2023-02-11T11:53:01.571Z,9.25
2023-02-11T11:55:34.844Z,9.26
2023-02-11T11:58:01.452Z,9.26
2023-02-11T12:00:55.893Z,9.24
2023-02-11T12:04:01.540Z,9.19
2023-02-11T12:06:41.206Z,9.15
2023-02-11T12:09:31.454Z,9.16
2023-02-11T12:12:23.032Z,9.18
2023-02-11T12:15:17.427Z,9.18
2023-02-11T12:18:04.102Z,9.16
2023-02-11T12:20:49.499Z,9.16
2023-02-11T12:23:41.045Z,9.18
2023-02-11T12:26:23.405Z,9.23
2023-02-11T12:29:01.596Z,9.26
2023-02-11T12:31:47.196Z,9.35
2023-02-11T12:34:56.028Z,9.45
2023-02-11T12:37:26.723Z,9.56
2023-02-11T12:40:41.718Z,9.65
2023-02-11T12:43:23.397Z,9.83
2023-02-11T12:46:14.940Z,9.94
2023-02-11T12:49:19.042Z,10.04
2023-02-11T12:52:17.898Z,10.10
2023-02-11T12:55:03.151Z,10.10
2023-02-11T12:57:36.666Z,10.10
2023-02-11T13:00:22.303Z,10.14
2023-02-11T13:03:19.096Z,10.15
2023-02-11T13:05:53.349Z,10.17
2023-02-11T13:08:31.321Z,10.19
2023-02-11T13:11:07.872Z,10.25
2023-02-11T13:13:49.416Z,10.32
2023-02-11T13:16:43.915Z,10.36
2023-02-11T13:19:13.272Z,10.36
2023-02-11T13:22:01.800Z,10.36
2023-02-11T13:24:44.564Z,10.37
2023-02-11T13:27:23.695Z,10.40
2023-02-11T13:30:33.372Z,10.38
2023-02-11T13:33:03.234Z,10.33
2023-02-11T13:35:39.412Z,10.28
2023-02-11T13:38:19.139Z,10.29
2023-02-11T13:41:06.038Z,10.26
2023-02-11T13:43:35.671Z,10.22
2023-02-11T13:46:11.130Z,10.19
2023-02-11T13:48:45.606Z,10.18
2023-02-11T13:51:16.806Z,10.17
2023-02-11T13:53:48.901Z,10.12
2023-02-11T13:59:28.104Z,10.05
2023-02-11T14:02:42.083Z,10.04
2023-02-11T14:05:50.946Z,9.99
2023-02-11T14:08:44.077Z,9.95
2023-02-11T14:11:33.319Z,9.89
2023-02-11T14:14:31.215Z,9.84
2023-02-11T14:17:06.801Z,9.80
2023-02-11T14:19:39.751Z,9.78
2023-02-11T14:22:16.664Z,9.75
2023-02-11T14:25:04.325Z,9.72
2023-02-11T14:27:38.005Z,9.69
2023-02-11T14:30:26.634Z,9.68
2023-02-11T14:33:03.739Z,9.68
2023-02-11T14:35:49.958Z,9.69
2023-02-11T14:38:45.351Z,9.72
2023-02-11T14:41:23.301Z,9.75
2023-02-11T14:44:04.566Z,9.80
2023-02-11T14:46:35.562Z,9.80
2023-02-11T14:49:05.211Z,9.83
2023-02-11T14:51:36.336Z,9.83
2023-02-11T14:54:25.203Z,9.83
2023-02-11T14:57:14.709Z,9.79
2023-02-11T15:00:31.335Z,9.78
2023-02-11T15:03:49.458Z,9.75
2023-02-11T15:06:23.189Z,9.73
2023-02-11T15:09:00.729Z,9.71
2023-02-11T15:11:32.279Z,9.71
2023-02-11T15:14:08.408Z,9.67
2023-02-11T15:16:39.815Z,9.65
2023-02-11T15:19:07.551Z,9.62
2023-02-11T15:21:35.867Z,9.58
2023-02-11T15:24:20.898Z,9.53
2023-02-11T15:27:02.406Z,9.49
2023-02-11T15:29:36.116Z,9.44
2023-02-11T15:32:23.738Z,9.39
2023-02-11T15:34:54.657Z,9.34
2023-02-11T15:37:26.619Z,9.30
2023-02-11T15:39:54.386Z,9.25
2023-02-11T15:42:40.752Z,9.23
2023-02-11T15:45:13.703Z,9.16
2023-02-11T15:47:46.822Z,9.11
2023-02-11T15:50:27.731Z,9.09
2023-02-11T15:53:00.626Z,9.04
2023-02-11T15:55:28.764Z,8.99
2023-02-11T15:58:01.448Z,8.97
2023-02-11T16:00:36.147Z,8.94
2023-02-11T16:03:03.652Z,8.89
2023-02-11T16:05:38.179Z,8.84
2023-02-11T16:08:21.554Z,8.81
2023-02-11T16:11:03.344Z,8.77
2023-02-11T16:13:33.634Z,8.74
2023-02-11T16:16:05.307Z,8.70
2023-02-11T16:18:39.538Z,8.68
2023-02-11T16:21:16.819Z,8.64
2023-02-11T16:23:49.298Z,8.61
2023-02-11T16:26:28.041Z,8.55
2023-02-11T16:29:04.130Z,8.51
2023-02-11T16:31:36.198Z,8.46
2023-02-11T16:34:02.681Z,8.45
2023-02-11T16:36:29.204Z,8.42
2023-02-11T16:38:55.855Z,8.40
2023-02-11T16:41:22.428Z,8.38
2023-02-11T16:43:48.964Z,8.38
2023-02-11T16:46:16.194Z,8.35
2023-02-11T16:48:43.179Z,8.33
2023-02-11T16:51:12.074Z,8.32
2023-02-11T16:53:38.927Z,8.31
2023-02-11T16:56:05.735Z,8.31
2023-02-11T16:58:32.379Z,8.31
2023-02-11T17:00:59.096Z,8.32
2023-02-11T17:03:29.890Z,8.31
2023-02-11T17:05:56.696Z,8.28
2023-02-11T17:08:23.285Z,8.27
2023-02-11T17:10:50.254Z,8.28
2023-02-11T17:13:16.919Z,8.28
2023-02-11T17:15:43.449Z,8.26
2023-02-11T17:18:12.950Z,8.26
2023-02-11T17:20:39.422Z,8.24
2023-02-11T17:23:05.960Z,8.23
2023-02-11T17:25:32.741Z,8.21
2023-02-11T17:27:59.315Z,8.19
2023-02-11T17:30:25.941Z,8.17
2023-02-11T17:32:52.487Z,8.15
2023-02-11T17:35:19.030Z,8.12
2023-02-11T17:37:45.574Z,8.12
2023-02-11T17:40:12.965Z,8.12
2023-02-11T17:42:39.565Z,8.09
2023-02-11T17:45:06.984Z,8.08
2023-02-11T17:47:33.461Z,8.08
2023-02-11T17:49:59.951Z,8.06
2023-02-11T17:52:28.264Z,8.04
2023-02-11T17:54:55.266Z,8.03
2023-02-11T17:57:21.763Z,8.01
2023-02-11T17:59:48.299Z,8.00
2023-02-11T18:02:15.493Z,7.97
2023-02-11T18:04:41.982Z,7.97
2023-02-11T18:07:09.007Z,7.93
2023-02-11T18:09:42.223Z,7.92
2023-02-11T18:12:09.416Z,7.92
2023-02-11T18:14:38.811Z,7.90
2023-02-11T18:17:05.270Z,7.88
2023-02-11T18:19:35.147Z,7.87
2023-02-11T18:22:02.781Z,7.85
2023-02-11T18:24:29.261Z,7.83
2023-02-11T18:26:55.817Z,7.81
2023-02-11T18:29:22.287Z,7.80
2023-02-11T18:31:48.855Z,7.80
2023-02-11T18:34:15.910Z,7.76
2023-02-11T18:36:42.589Z,7.77
2023-02-11T18:39:09.059Z,7.76
2023-02-11T18:41:35.474Z,7.77
2023-02-11T18:44:03.276Z,7.77
2023-02-11T18:46:30.476Z,7.77
2023-02-11T18:48:57.056Z,7.76
2023-02-11T18:51:23.552Z,7.77
2023-02-11T18:53:50.029Z,7.77
2023-02-11T18:56:20.339Z,7.76
2023-02-11T18:58:47.892Z,7.76
2023-02-11T19:01:27.387Z,7.74
2023-02-11T19:03:55.755Z,7.73
2023-02-11T19:06:25.597Z,7.71
2023-02-11T19:08:53.385Z,7.73
2023-02-11T19:11:20.130Z,7.74
2023-02-11T19:13:47.887Z,7.73
2023-02-11T19:16:16.947Z,7.73
2023-02-11T19:18:43.570Z,7.74
2023-02-11T19:21:12.035Z,7.72
2023-02-11T19:23:38.768Z,7.72
2023-02-11T19:26:06.499Z,7.73
2023-02-11T19:28:35.200Z,7.72
2023-02-11T19:31:09.269Z,7.74
2023-02-11T19:33:35.758Z,7.72
2023-02-11T19:36:05.116Z,7.72
2023-02-11T19:38:31.523Z,7.74
2023-02-11T19:40:58.389Z,7.72
2023-02-11T19:43:25.789Z,7.74
2023-02-11T19:45:56.174Z,7.75
2023-02-11T19:48:23.981Z,7.75
2023-02-11T19:50:50.751Z,7.72
2023-02-11T19:53:17.333Z,7.73
2023-02-11T19:55:43.744Z,7.72
2023-02-11T19:58:13.881Z,7.72
2023-02-11T20:00:40.379Z,7.73
2023-02-11T20:03:07.013Z,7.72
2023-02-11T20:05:33.653Z,7.72
2023-02-11T20:08:00.284Z,7.71
2023-02-11T20:10:26.656Z,7.70
2023-02-11T20:12:53.151Z,7.70
2023-02-11T20:15:19.590Z,7.67
2023-02-11T20:17:45.985Z,7.66
2023-02-11T20:20:12.909Z,7.67
2023-02-11T20:22:39.325Z,7.67
2023-02-11T20:25:06.216Z,7.66
2023-02-11T20:27:33.344Z,7.66
2023-02-11T20:29:59.800Z,7.64
2023-02-11T20:32:26.174Z,7.65
2023-02-11T20:34:52.633Z,7.65
2023-02-11T20:37:19.051Z,7.65
2023-02-11T20:39:45.463Z,7.62
2023-02-11T20:42:11.918Z,7.63
2023-02-11T20:44:38.925Z,7.63
2023-02-11T20:47:05.409Z,7.64
2023-02-11T20:49:32.156Z,7.65
2023-02-11T20:51:58.636Z,7.63
2023-02-11T20:54:25.773Z,7.63
2023-02-11T20:56:53.941Z,7.61
2023-02-11T20:59:23.796Z,7.62
2023-02-11T21:01:55.965Z,7.61
2023-02-11T21:04:26.190Z,7.61
2023-02-11T21:06:55.810Z,7.61
2023-02-11T21:09:25.259Z,7.60
2023-02-11T21:11:53.054Z,7.61
2023-02-11T21:14:22.248Z,7.59
2023-02-11T21:16:49.036Z,7.59
2023-02-11T21:19:16.105Z,7.58
2023-02-11T21:21:42.914Z,7.58
2023-02-11T21:24:10.371Z,7.58
2023-02-11T21:26:37.455Z,7.57
2023-02-11T21:29:05.987Z,7.56
2023-02-11T21:31:34.140Z,7.57
2023-02-11T21:34:01.315Z,7.53
2023-02-11T21:36:29.002Z,7.54
2023-02-11T21:38:55.530Z,7.54
2023-02-11T21:41:22.680Z,7.53
2023-02-11T21:43:49.702Z,7.53
2023-02-11T21:46:17.096Z,7.54
2023-02-11T21:48:43.712Z,7.53
2023-02-11T21:51:14.159Z,7.54
2023-02-11T21:53:40.540Z,7.53
2023-02-11T21:56:12.852Z,7.53
2023-02-11T21:58:39.682Z,7.51
2023-02-11T22:01:18.104Z,7.53
2023-02-11T22:03:45.331Z,7.51
2023-02-11T22:06:14.411Z,7.52
2023-02-11T22:08:41.184Z,7.50
2023-02-11T22:11:10.472Z,7.51
2023-02-11T22:13:37.302Z,7.50
2023-02-11T22:16:07.181Z,7.50
2023-02-11T22:18:34.043Z,7.50
2023-02-11T22:21:02.042Z,7.50
2023-02-11T22:23:29.202Z,7.51
2023-02-11T22:25:56.989Z,7.50
2023-02-11T22:28:25.430Z,7.49
2023-02-11T22:30:56.975Z,7.50
2023-02-11T22:33:27.864Z,7.50
2023-02-11T22:36:06.299Z,7.49
2023-02-11T22:38:33.790Z,7.47
2023-02-11T22:41:06.073Z,7.46
2023-02-11T22:43:32.516Z,7.45
2023-02-11T22:46:03.658Z,7.46
2023-02-11T22:48:30.145Z,7.45
2023-02-11T22:50:57.036Z,7.43
2023-02-11T22:53:25.475Z,7.44
2023-02-11T22:55:52.244Z,7.43
2023-02-11T22:58:18.905Z,7.42
2023-02-11T23:00:45.348Z,7.43
2023-02-11T23:03:12.816Z,7.42
2023-02-11T23:05:42.170Z,7.44
2023-02-11T23:08:10.255Z,7.44
2023-02-11T23:10:38.574Z,7.47
2023-02-11T23:13:06.617Z,7.45
2023-02-11T23:15:33.695Z,7.43
2023-02-11T23:18:00.122Z,7.42
2023-02-11T23:20:26.693Z,7.41
2023-02-11T23:22:53.062Z,7.39
2023-02-11T23:25:19.502Z,7.42
2023-02-11T23:27:45.963Z,7.42
2023-02-11T23:30:12.796Z,7.41
2023-02-11T23:32:39.596Z,7.42
2023-02-11T23:35:06.379Z,7.40
2023-02-11T23:37:32.793Z,7.39
2023-02-11T23:39:59.166Z,7.39
2023-02-11T23:42:25.932Z,7.39
2023-02-11T23:45:14.484Z,7.38
2023-02-11T23:47:41.997Z,7.36
2023-02-11T23:50:24.584Z,7.35
2023-02-11T23:52:51.048Z,7.35
2023-02-11T23:55:17.669Z,7.35
2023-02-11T23:57:44.160Z,7.35
